createdAt,value
2019-06-20T00:01:14.460Z,17.50
2019-06-20T00:03:42.592Z,17.51
2019-06-20T00:06:10.794Z,17.51
2019-06-20T00:08:39.013Z,17.52
2019-06-20T00:11:07.217Z,17.49
2019-06-20T00:13:35.389Z,17.43
2019-06-20T00:16:03.851Z,17.42
2019-06-20T00:18:31.972Z,17.42
2019-06-20T00:21:00.120Z,17.41
2019-06-20T00:23:28.297Z,17.35
2019-06-20T00:25:56.435Z,17.31
2019-06-20T00:28:24.554Z,17.26
2019-06-20T00:30:52.714Z,17.21
2019-06-20T00:33:20.848Z,17.15
2019-06-20T00:35:49.033Z,17.09
2019-06-20T00:38:17.199Z,17.03
2019-06-20T00:40:45.352Z,16.98
2019-06-20T00:43:17.822Z,16.93
2019-06-20T00:45:43.389Z,16.89
2019-06-20T00:48:11.511Z,16.87
2019-06-20T00:50:41.252Z,16.82
2019-06-20T00:53:09.431Z,16.76
2019-06-20T00:55:37.565Z,16.72
2019-06-20T00:58:05.703Z,16.69
2019-06-20T01:00:33.866Z,16.67
2019-06-20T01:03:02.231Z,16.64
2019-06-20T01:05:30.463Z,16.64
2019-06-20T01:07:58.621Z,16.63
2019-06-20T01:10:26.777Z,16.62
2019-06-20T01:12:54.959Z,16.63
2019-06-20T01:15:23.099Z,16.64
2019-06-20T01:17:51.260Z,16.63
2019-06-20T01:20:19.720Z,16.62
2019-06-20T01:22:47.947Z,16.63
2019-06-20T01:25:17.648Z,16.64
2019-06-20T01:27:45.827Z,16.64
2019-06-20T01:30:14.039Z,16.63
2019-06-20T01:32:42.210Z,16.63
2019-06-20T01:35:10.435Z,16.62
2019-06-20T01:37:38.559Z,16.62
2019-06-20T01:40:07.335Z,16.61
2019-06-20T01:42:35.480Z,16.62
2019-06-20T01:45:04.039Z,16.61
2019-06-20T01:47:32.204Z,16.59
2019-06-20T01:50:00.345Z,16.57
2019-06-20T01:52:28.469Z,16.56
2019-06-20T01:54:56.654Z,16.57
2019-06-20T01:57:24.800Z,16.55
2019-06-20T01:59:52.935Z,16.51
2019-06-20T02:02:21.087Z,16.46
2019-06-20T02:04:49.229Z,16.45
2019-06-20T02:07:17.372Z,16.43
2019-06-20T02:09:45.566Z,16.42
2019-06-20T02:12:13.741Z,16.41
2019-06-20T02:14:41.868Z,16.39
2019-06-20T02:17:10.107Z,16.39
2019-06-20T02:19:38.279Z,16.38
2019-06-20T02:22:06.495Z,16.35
2019-06-20T02:24:34.643Z,16.36
2019-06-20T02:27:02.769Z,16.35
2019-06-20T02:29:30.930Z,16.35
2019-06-20T02:31:59.066Z,16.36
2019-06-20T02:34:27.190Z,16.35
2019-06-20T02:36:55.366Z,16.34
2019-06-20T02:39:23.482Z,16.33
2019-06-20T02:41:51.628Z,16.33
2019-06-20T02:44:29.812Z,16.31
2019-06-20T02:46:49.676Z,16.32
2019-06-20T02:49:17.798Z,16.31
2019-06-20T02:51:47.589Z,16.30
2019-06-20T02:54:15.730Z,16.27
2019-06-20T02:56:43.847Z,16.24
2019-06-20T02:59:11.996Z,16.23
2019-06-20T03:01:40.149Z,16.19
2019-06-20T03:04:08.257Z,16.19
2019-06-20T03:06:36.525Z,16.19
2019-06-20T03:09:06.409Z,16.20
2019-06-20T03:11:34.558Z,16.23
2019-06-20T03:14:02.710Z,16.23
2019-06-20T03:16:30.871Z,16.25
2019-06-20T03:18:58.996Z,16.25
2019-06-20T03:21:27.138Z,16.26
2019-06-20T03:23:55.303Z,16.26
2019-06-20T03:26:23.479Z,16.27
2019-06-20T03:28:51.649Z,16.28
2019-06-20T03:31:19.831Z,16.29
2019-06-20T03:33:47.962Z,16.28
2019-06-20T03:36:16.170Z,16.26
2019-06-20T03:38:44.278Z,16.26
2019-06-20T03:41:12.426Z,16.25
2019-06-20T03:43:40.575Z,16.25
2019-06-20T03:46:08.715Z,16.26
2019-06-20T03:48:36.847Z,16.26
2019-06-20T03:51:05.017Z,16.27
2019-06-20T03:53:33.209Z,16.27
2019-06-20T03:56:01.334Z,16.28
2019-06-20T03:58:29.487Z,16.30
2019-06-20T04:00:57.652Z,16.30
2019-06-20T04:03:25.755Z,16.31
2019-06-20T04:05:53.968Z,16.32
2019-06-20T04:08:22.148Z,16.30
2019-06-20T04:10:50.297Z,16.29
2019-06-20T04:13:18.514Z,16.29
2019-06-20T04:15:46.639Z,16.29
2019-06-20T04:18:14.836Z,16.31
2019-06-20T04:20:43.009Z,16.33
2019-06-20T04:23:11.140Z,16.34
2019-06-20T04:25:39.357Z,16.36
2019-06-20T04:28:07.590Z,16.35
2019-06-20T04:30:35.745Z,16.36
2019-06-20T04:33:03.875Z,16.38
2019-06-20T04:35:32.729Z,16.41
2019-06-20T04:38:00.888Z,16.41
2019-06-20T04:40:29.018Z,16.42
2019-06-20T04:42:57.186Z,16.41
2019-06-20T04:45:34.553Z,16.40
2019-06-20T04:47:55.191Z,16.39
2019-06-20T04:50:23.355Z,16.38
2019-06-20T04:52:51.477Z,16.37
2019-06-20T04:55:19.586Z,16.39
2019-06-20T04:57:47.806Z,16.38
2019-06-20T05:00:16.071Z,16.38
2019-06-20T05:02:44.289Z,16.40
2019-06-20T05:05:13.630Z,16.44
2019-06-20T05:07:42.077Z,16.46
2019-06-20T05:10:10.434Z,16.44
2019-06-20T05:12:38.582Z,16.50
2019-06-20T05:15:06.836Z,16.49
2019-06-20T05:17:34.978Z,16.49
2019-06-20T05:20:03.326Z,16.53
2019-06-20T05:22:31.488Z,16.58
2019-06-20T05:24:59.667Z,16.61
2019-06-20T05:27:27.845Z,16.65
2019-06-20T05:29:55.973Z,16.70
2019-06-20T05:32:24.142Z,16.74
2019-06-20T05:34:52.311Z,16.76
2019-06-20T05:37:20.479Z,16.82
2019-06-20T05:39:48.650Z,16.85
2019-06-20T05:42:16.778Z,16.91
2019-06-20T05:44:44.982Z,16.95
2019-06-20T05:47:14.093Z,17.00
2019-06-20T05:49:42.667Z,17.04
2019-06-20T05:52:10.843Z,17.09
2019-06-20T05:54:39.821Z,17.11
2019-06-20T05:57:08.082Z,17.16
2019-06-20T05:59:36.237Z,17.21
2019-06-20T06:02:04.660Z,17.25
2019-06-20T06:04:32.913Z,17.27
2019-06-20T06:07:01.094Z,17.30
2019-06-20T06:09:29.241Z,17.30
2019-06-20T06:11:57.527Z,17.29
2019-06-20T06:14:25.729Z,17.29
2019-06-20T06:16:53.862Z,17.28
2019-06-20T06:19:22.006Z,17.30
2019-06-20T06:21:50.340Z,17.32
2019-06-20T06:24:18.500Z,17.31
2019-06-20T06:26:46.770Z,17.30
2019-06-20T06:29:14.915Z,17.31
2019-06-20T06:31:43.064Z,17.29
2019-06-20T06:34:11.176Z,17.27
2019-06-20T06:36:39.412Z,17.26
2019-06-20T06:39:08.925Z,17.26
2019-06-20T06:41:37.066Z,17.26
2019-06-20T06:44:07.619Z,17.28
2019-06-20T06:46:45.828Z,17.31
2019-06-20T06:49:05.008Z,17.35
2019-06-20T06:51:33.164Z,17.36
2019-06-20T06:54:01.282Z,17.35
2019-06-20T06:56:29.442Z,17.34
2019-06-20T06:58:57.576Z,17.35
2019-06-20T07:01:25.693Z,17.33
2019-06-20T07:03:53.928Z,17.35
2019-06-20T07:06:22.055Z,17.37
2019-06-20T07:08:50.206Z,17.39
2019-06-20T07:11:18.394Z,17.44
2019-06-20T07:13:46.554Z,17.46
2019-06-20T07:16:14.690Z,17.55
2019-06-20T07:18:42.812Z,17.60
2019-06-20T07:21:10.981Z,17.69
2019-06-20T07:23:39.115Z,17.79
2019-06-20T07:26:07.265Z,17.93
2019-06-20T07:28:35.435Z,18.05
2019-06-20T07:31:03.578Z,18.14
2019-06-20T07:33:31.729Z,18.20
2019-06-20T07:35:59.989Z,18.26
2019-06-20T07:38:28.153Z,18.31
2019-06-20T07:40:56.313Z,18.34
2019-06-20T07:43:24.483Z,18.39
2019-06-20T07:46:02.478Z,18.41
2019-06-20T07:48:22.495Z,18.45
2019-06-20T07:50:50.678Z,18.50
2019-06-20T07:53:18.823Z,18.53
2019-06-20T07:55:46.982Z,18.57
2019-06-20T07:58:15.228Z,18.66
2019-06-20T08:00:43.416Z,18.75
2019-06-20T08:03:11.568Z,18.85
2019-06-20T08:05:39.722Z,18.96
2019-06-20T08:08:07.991Z,19.10
2019-06-20T08:10:36.165Z,19.20
2019-06-20T08:13:04.468Z,19.27
2019-06-20T08:15:32.643Z,19.35
2019-06-20T08:18:00.815Z,19.56
2019-06-20T08:20:28.985Z,19.76
2019-06-20T08:22:57.261Z,19.85
2019-06-20T08:25:25.497Z,19.93
2019-06-20T08:27:53.675Z,19.93
2019-06-20T08:30:24.175Z,19.85
2019-06-20T08:32:52.327Z,19.77
2019-06-20T08:35:23.161Z,19.74
2019-06-20T08:37:52.061Z,19.76
2019-06-20T08:40:21.368Z,19.78
2019-06-20T08:42:49.528Z,19.78
2019-06-20T08:45:18.098Z,19.75
2019-06-20T08:47:46.269Z,19.71
2019-06-20T08:50:14.746Z,19.66
2019-06-20T08:52:42.850Z,19.67
2019-06-20T08:55:11.109Z,19.66
2019-06-20T08:57:39.280Z,19.64
2019-06-20T09:00:07.641Z,19.67
2019-06-20T09:02:35.783Z,19.72
2019-06-20T09:05:04.340Z,19.81
2019-06-20T09:07:32.490Z,19.87
2019-06-20T09:10:01.954Z,19.86
2019-06-20T09:12:30.349Z,19.86
2019-06-20T09:14:59.121Z,19.90
2019-06-20T09:17:27.545Z,19.95
2019-06-20T09:19:55.947Z,20.02
2019-06-20T09:22:24.084Z,20.06
2019-06-20T09:24:53.330Z,20.07
2019-06-20T09:27:21.864Z,20.04
2019-06-20T09:29:50.122Z,19.96
2019-06-20T09:32:18.310Z,19.91
2019-06-20T09:34:46.457Z,19.87
2019-06-20T09:37:14.588Z,19.86
2019-06-20T09:39:42.755Z,19.88
2019-06-20T09:42:10.955Z,19.92
2019-06-20T09:44:39.103Z,19.93
2019-06-20T09:47:07.365Z,19.92
2019-06-20T09:49:35.618Z,19.90
2019-06-20T09:52:03.792Z,19.83
2019-06-20T09:54:31.981Z,19.72
2019-06-20T09:57:00.092Z,19.65
2019-06-20T09:59:28.244Z,19.58
2019-06-20T10:01:58.541Z,19.58
2019-06-20T10:04:26.400Z,19.59
2019-06-20T10:06:54.581Z,19.58
2019-06-20T10:09:22.826Z,19.55
2019-06-20T10:11:51.919Z,19.55
2019-06-20T10:14:20.693Z,19.55
2019-06-20T10:16:50.987Z,19.55
2019-06-20T10:19:18.786Z,19.55
2019-06-20T10:21:47.851Z,19.52
2019-06-20T10:24:16.246Z,19.49
2019-06-20T10:26:44.905Z,19.44
2019-06-20T10:29:14.459Z,19.45
2019-06-20T10:31:42.724Z,19.46
2019-06-20T10:34:10.909Z,19.47
2019-06-20T10:36:39.112Z,19.52
2019-06-20T10:39:09.015Z,19.58
2019-06-20T10:41:37.185Z,19.62
2019-06-20T10:44:05.542Z,19.67
2019-06-20T10:46:33.736Z,19.72
2019-06-20T10:49:01.916Z,19.75
2019-06-20T10:51:30.082Z,19.81
2019-06-20T10:53:58.222Z,19.89
2019-06-20T10:56:26.462Z,19.90
2019-06-20T10:58:54.718Z,19.94
2019-06-20T11:01:22.880Z,19.97
2019-06-20T11:03:51.096Z,20.02
2019-06-20T11:06:19.232Z,20.11
2019-06-20T11:08:49.406Z,20.20
2019-06-20T11:11:17.981Z,20.26
2019-06-20T11:13:46.581Z,20.32
2019-06-20T11:16:14.876Z,20.29
2019-06-20T11:18:43.651Z,20.15
2019-06-20T11:21:11.901Z,19.88
2019-06-20T11:23:40.868Z,19.59
2019-06-20T11:26:09.296Z,19.38
2019-06-20T11:28:38.240Z,19.29
2019-06-20T11:31:07.370Z,19.18
2019-06-20T11:33:37.131Z,19.15
2019-06-20T11:36:05.454Z,19.20
2019-06-20T11:38:33.616Z,19.37
2019-06-20T11:41:01.804Z,19.75
2019-06-20T11:43:29.953Z,20.25
2019-06-20T11:45:58.095Z,20.63
2019-06-20T11:48:26.276Z,20.82
2019-06-20T11:50:54.436Z,20.82
2019-06-20T11:53:22.638Z,20.74
2019-06-20T11:55:50.794Z,20.70
2019-06-20T11:58:19.013Z,20.57
2019-06-20T12:01:02.597Z,20.41
2019-06-20T12:03:17.641Z,20.35
2019-06-20T12:05:47.206Z,20.48
2019-06-20T12:08:15.486Z,20.50
2019-06-20T12:10:45.155Z,20.37
2019-06-20T12:13:13.436Z,20.28
2019-06-20T12:15:42.761Z,20.19
2019-06-20T12:18:11.199Z,19.98
2019-06-20T12:20:41.048Z,19.78
2019-06-20T12:23:09.163Z,19.62
2019-06-20T12:25:39.072Z,19.47
2019-06-20T12:28:07.245Z,19.35
2019-06-20T12:30:35.416Z,19.25
2019-06-20T12:33:03.569Z,19.14
2019-06-20T12:35:31.711Z,19.09
2019-06-20T12:37:59.838Z,19.14
2019-06-20T12:40:28.024Z,19.09
2019-06-20T12:42:56.184Z,19.00
2019-06-20T12:45:24.312Z,18.86
2019-06-20T12:47:52.573Z,18.77
2019-06-20T12:50:22.320Z,18.70
2019-06-20T12:52:50.471Z,18.65
2019-06-20T12:55:18.819Z,18.62
2019-06-20T12:57:48.344Z,18.55
2019-06-20T13:00:18.501Z,18.47
2019-06-20T13:02:47.442Z,18.39
2019-06-20T13:05:16.636Z,18.33
2019-06-20T13:07:46.207Z,18.29
2019-06-20T13:10:16.684Z,18.13
2019-06-20T13:12:46.160Z,18.01
2019-06-20T13:15:14.839Z,17.90
2019-06-20T13:17:43.697Z,17.82
2019-06-20T13:20:12.995Z,17.74
2019-06-20T13:22:42.723Z,17.67
2019-06-20T13:25:11.116Z,17.59
2019-06-20T13:27:40.972Z,17.49
2019-06-20T13:30:11.341Z,17.42
2019-06-20T13:32:41.227Z,17.36
2019-06-20T13:35:09.582Z,17.37
2019-06-20T13:37:38.242Z,17.36
2019-06-20T13:40:09.714Z,17.33
2019-06-20T13:42:39.069Z,17.33
2019-06-20T13:45:15.517Z,17.34
2019-06-20T13:47:43.750Z,17.35
2019-06-20T13:50:12.510Z,17.36
2019-06-20T13:52:43.569Z,17.39
2019-06-20T13:55:10.709Z,17.49
2019-06-20T13:57:41.181Z,17.63
2019-06-20T14:00:09.743Z,17.77
2019-06-20T14:02:38.093Z,17.89
2019-06-20T14:05:06.722Z,18.03
2019-06-20T14:07:34.900Z,18.16
2019-06-20T14:10:03.480Z,18.30
2019-06-20T14:12:31.597Z,18.41
2019-06-20T14:14:59.784Z,18.47
2019-06-20T14:17:27.909Z,18.52
2019-06-20T14:19:56.562Z,18.49
2019-06-20T14:22:24.852Z,18.53
2019-06-20T14:24:53.688Z,18.55
2019-06-20T14:27:21.894Z,18.64
2019-06-20T14:29:50.875Z,18.75
2019-06-20T14:32:22.372Z,18.84
2019-06-20T14:34:50.329Z,18.88
2019-06-20T14:37:18.757Z,18.94
2019-06-20T14:39:46.948Z,19.04
2019-06-20T14:42:15.077Z,19.11
2019-06-20T14:44:44.658Z,19.12
2019-06-20T14:47:13.131Z,19.21
2019-06-20T14:49:41.285Z,19.28
2019-06-20T14:52:09.514Z,19.37
2019-06-20T14:54:37.753Z,19.42
2019-06-20T14:57:05.906Z,19.51
2019-06-20T14:59:35.456Z,19.57
2019-06-20T15:02:03.841Z,19.55
2019-06-20T15:04:32.049Z,19.52
2019-06-20T15:07:00.232Z,19.55
2019-06-20T15:09:28.334Z,19.59
2019-06-20T15:11:56.479Z,19.61
2019-06-20T15:14:24.669Z,19.70
2019-06-20T15:16:53.691Z,19.77
2019-06-20T15:19:22.172Z,19.81
2019-06-20T15:21:50.296Z,19.75
2019-06-20T15:24:22.610Z,19.63
2019-06-20T15:26:52.344Z,19.56
2019-06-20T15:29:22.399Z,19.59
2019-06-20T15:31:50.660Z,19.54
2019-06-20T15:34:18.827Z,19.44
2019-06-20T15:36:48.626Z,19.41
2019-06-20T15:39:19.851Z,19.44
2019-06-20T15:41:48.805Z,19.51
2019-06-20T15:44:17.968Z,19.54
2019-06-20T15:46:48.284Z,19.68
2019-06-20T15:49:16.608Z,19.77
2019-06-20T15:51:48.062Z,19.98
2019-06-20T15:54:16.199Z,20.28
2019-06-20T15:56:44.384Z,20.62
2019-06-20T15:59:12.538Z,21.04
2019-06-20T16:01:40.681Z,21.04
2019-06-20T16:04:08.937Z,21.23
2019-06-20T16:09:09.180Z,21.56
2019-06-20T16:11:37.524Z,21.71
2019-06-20T16:14:05.781Z,21.78
2019-06-20T16:16:34.003Z,21.73
2019-06-20T16:19:02.402Z,21.73
2019-06-20T16:21:36.137Z,21.81
2019-06-20T16:24:04.533Z,21.90
2019-06-20T16:26:35.524Z,21.92
2019-06-20T16:29:06.286Z,22.02
2019-06-20T16:31:37.582Z,22.15
2019-06-20T16:34:05.820Z,22.20
2019-06-20T16:36:34.002Z,22.19
2019-06-20T16:39:02.127Z,22.10
2019-06-20T16:41:30.430Z,22.01
2019-06-20T16:43:58.588Z,22.02
2019-06-20T16:46:26.828Z,22.02
2019-06-20T16:48:54.992Z,21.88
2019-06-20T16:51:23.177Z,21.69
2019-06-20T16:53:52.587Z,21.58
2019-06-20T16:56:23.152Z,21.59
2019-06-20T16:58:51.334Z,21.50
2019-06-20T17:01:21.825Z,21.42
2019-06-20T17:03:49.988Z,21.28
2019-06-20T17:06:19.756Z,20.94
2019-06-20T17:08:47.948Z,20.94
2019-06-20T17:11:16.494Z,20.72
2019-06-20T17:13:46.157Z,20.62
2019-06-20T17:16:19.484Z,20.53
2019-06-20T17:18:52.303Z,20.36
2019-06-20T17:21:20.160Z,20.22
2019-06-20T17:23:48.403Z,20.12
2019-06-20T17:26:16.600Z,20.01
2019-06-20T17:28:49.619Z,19.84
2019-06-20T17:31:17.826Z,19.75
2019-06-20T17:33:57.204Z,19.68
2019-06-20T17:36:18.520Z,19.60
2019-06-20T17:38:46.711Z,19.52
2019-06-20T17:41:15.045Z,19.42
2019-06-20T17:43:43.219Z,19.34
2019-06-20T17:46:15.268Z,19.27
2019-06-20T17:48:43.133Z,19.16
2019-06-20T17:51:13.213Z,19.05
2019-06-20T17:53:42.453Z,18.98
2019-06-20T17:56:10.580Z,18.94
2019-06-20T17:58:38.818Z,18.94
2019-06-20T18:01:07.014Z,18.93
2019-06-20T18:03:35.279Z,18.93
2019-06-20T18:06:03.420Z,18.93
2019-06-20T18:08:31.652Z,18.88
2019-06-20T18:10:59.924Z,18.81
2019-06-20T18:13:31.295Z,18.74
2019-06-20T18:15:59.691Z,18.70
2019-06-20T18:18:29.885Z,18.65
2019-06-20T18:20:58.098Z,18.58
2019-06-20T18:23:26.383Z,18.51
2019-06-20T18:25:56.968Z,18.44
2019-06-20T18:28:25.115Z,18.40
2019-06-20T18:30:53.448Z,18.36
2019-06-20T18:33:21.647Z,18.32
2019-06-20T18:35:52.774Z,18.27
2019-06-20T18:38:25.392Z,18.21
2019-06-20T18:40:53.719Z,18.14
2019-06-20T18:43:21.894Z,18.10
2019-06-20T18:45:50.085Z,18.05
2019-06-20T18:48:18.320Z,18.02
2019-06-20T18:50:46.484Z,17.96
2019-06-20T18:53:17.864Z,17.95
2019-06-20T18:55:46.059Z,17.91
2019-06-20T18:58:14.285Z,17.86
2019-06-20T19:00:42.436Z,17.82
2019-06-20T19:03:10.719Z,17.79
2019-06-20T19:05:38.964Z,17.77
2019-06-20T19:08:08.925Z,17.74
2019-06-20T19:10:37.109Z,17.72
2019-06-20T19:13:05.294Z,17.67
2019-06-20T19:15:39.927Z,17.65
2019-06-20T19:18:09.181Z,17.63
2019-06-20T19:20:37.499Z,17.59
2019-06-20T19:23:05.731Z,17.58
2019-06-20T19:25:36.838Z,17.56
2019-06-20T19:28:05.065Z,17.54
2019-06-20T19:30:45.578Z,17.52
2019-06-20T19:33:12.769Z,17.51
2019-06-20T19:35:40.997Z,17.48
2019-06-20T19:38:09.170Z,17.46
2019-06-20T19:40:41.123Z,17.44
2019-06-20T19:43:09.242Z,17.44
2019-06-20T19:45:37.373Z,17.43
2019-06-20T19:48:05.514Z,17.43
2019-06-20T19:50:33.646Z,17.41
2019-06-20T19:53:01.794Z,17.39
2019-06-20T19:55:30.023Z,17.37
2019-06-20T19:57:58.281Z,17.34
2019-06-20T20:00:26.445Z,17.30
2019-06-20T20:02:54.613Z,17.27
2019-06-20T20:05:22.867Z,17.23
2019-06-20T20:07:51.068Z,17.17
2019-06-20T20:10:41.453Z,17.13
2019-06-20T20:13:09.582Z,17.08
2019-06-20T20:15:37.715Z,17.03
2019-06-20T20:18:05.903Z,17.00
2019-06-20T20:20:33.996Z,16.95
2019-06-20T20:23:02.349Z,16.92
2019-06-20T20:25:30.545Z,16.86
2019-06-20T20:27:58.727Z,16.81
2019-06-20T20:30:27.721Z,16.76
2019-06-20T20:32:55.881Z,16.70
2019-06-20T20:35:34.792Z,16.64
2019-06-20T20:37:53.888Z,16.58
2019-06-20T20:40:22.840Z,16.53
2019-06-20T20:42:51.088Z,16.48
2019-06-20T20:45:19.888Z,16.41
2019-06-20T20:47:48.001Z,16.36
2019-06-20T20:50:16.187Z,16.33
2019-06-20T20:52:44.326Z,16.28
2019-06-20T20:55:14.102Z,16.24
2019-06-20T20:57:42.269Z,16.18
2019-06-20T21:00:12.750Z,16.13
2019-06-20T21:02:39.955Z,16.09
2019-06-20T21:05:08.233Z,16.03
2019-06-20T21:07:39.135Z,15.99
2019-06-20T21:10:06.736Z,15.92
2019-06-20T21:12:34.910Z,15.87
2019-06-20T21:15:03.295Z,15.81
2019-06-20T21:17:31.425Z,15.76
2019-06-20T21:19:59.863Z,15.70
2019-06-20T21:22:27.985Z,15.65
2019-06-20T21:24:56.152Z,15.60
2019-06-20T21:27:24.441Z,15.55
2019-06-20T21:29:52.553Z,15.52
2019-06-20T21:32:20.684Z,15.48
2019-06-20T21:34:48.860Z,15.45
2019-06-20T21:37:16.978Z,15.43
2019-06-20T21:39:45.105Z,15.42
2019-06-20T21:42:13.271Z,15.42
2019-06-20T21:44:41.414Z,15.43
2019-06-20T21:47:09.561Z,15.42
2019-06-20T21:49:37.714Z,15.41
2019-06-20T21:52:05.939Z,15.39
2019-06-20T21:54:34.071Z,15.37
2019-06-20T21:57:02.308Z,15.35
2019-06-20T21:59:30.458Z,15.32
2019-06-20T22:01:58.623Z,15.28
2019-06-20T22:04:26.794Z,15.25
2019-06-20T22:06:54.980Z,15.21
2019-06-20T22:09:23.105Z,15.18
2019-06-20T22:11:51.263Z,15.13
2019-06-20T22:14:19.455Z,15.10
2019-06-20T22:16:47.584Z,15.04
2019-06-20T22:19:15.717Z,14.98
2019-06-20T22:21:43.852Z,14.93
2019-06-20T22:24:12.130Z,14.88
2019-06-20T22:26:40.361Z,14.83
2019-06-20T22:29:08.520Z,14.78
2019-06-20T22:31:36.704Z,14.74
2019-06-20T22:34:04.834Z,14.68
2019-06-20T22:36:40.070Z,14.63
2019-06-20T22:39:03.643Z,14.58
2019-06-20T22:41:31.846Z,14.53
2019-06-20T22:44:00.008Z,14.49
2019-06-20T22:46:28.190Z,14.45
2019-06-20T22:48:56.335Z,14.41
2019-06-20T22:51:24.483Z,14.36
2019-06-20T22:53:52.732Z,14.32
2019-06-20T22:56:20.913Z,14.28
2019-06-20T22:58:49.052Z,14.24
2019-06-20T23:01:17.217Z,14.19
2019-06-20T23:03:45.363Z,14.16
2019-06-20T23:06:13.495Z,14.13
2019-06-20T23:08:41.639Z,14.09
2019-06-20T23:11:09.824Z,14.07
2019-06-20T23:13:37.953Z,14.03
2019-06-20T23:16:06.095Z,14.00
2019-06-20T23:18:34.279Z,13.97
2019-06-20T23:21:04.831Z,13.94
2019-06-20T23:23:32.296Z,13.92
2019-06-20T23:26:00.470Z,13.89
2019-06-20T23:28:28.596Z,13.86
2019-06-20T23:30:56.734Z,13.83
2019-06-20T23:33:24.939Z,13.80
2019-06-20T23:35:53.108Z,13.76
2019-06-20T23:38:21.259Z,13.73
2019-06-20T23:40:49.426Z,13.70
2019-06-20T23:43:17.572Z,13.67
2019-06-20T23:45:45.693Z,13.64
2019-06-20T23:48:13.874Z,13.62
2019-06-20T23:50:42.168Z,13.58
2019-06-20T23:53:10.360Z,13.55
2019-06-20T23:55:38.633Z,13.52
2019-06-20T23:58:06.963Z,13.51
